In Rescue
 
Open Full Screen Window  High Contrast Mode
Wind Gusting 00 knots
08
April 02, 2020 11:25 PM CDT
Present Weather: Light Snow
Weather Information
Wind Direction
  350 °
Wind Speed
  08 kt (9 mph)
Wind Gust
  00 kt (0 mph)
Altimeter
30.07 in
Visibility
3 SM
Temperature
-06° C
21° F
Dewpoint
-06° C
21° F
Humidity
100%
1hr Rain Fall
00.00 in.
24hr Rain Fall
00.02 in.
Sky Condition
Overcast @ 1,500 ft
Broken @ 1,000 ft
MVFR

METAR KMVE 030425Z AUTO 35008KT 3SM -SN BKN010 OVC015 M06/M06 A3007 RMK AO2

FAA Disclaimer: The data displayed is for advisory purposes only and is not to be used for flight planning or operations.